createdAt,value
2023-11-25T00:01:15.675Z,95230.97
2023-11-25T00:03:42.756Z,95227.09
2023-11-25T00:06:09.878Z,95223.38
2023-11-25T00:08:36.878Z,95220.56
2023-11-25T00:11:12.234Z,95221.09
2023-11-25T00:13:45.340Z,95230.56
2023-11-25T00:16:12.441Z,95235.00
2023-11-25T00:18:39.768Z,95218.47
2023-11-25T00:21:06.714Z,95231.72
2023-11-25T00:23:34.161Z,95238.47
2023-11-25T00:26:01.056Z,95230.91
2023-11-25T00:28:28.078Z,95217.13
2023-11-25T00:30:55.415Z,95210.56
2023-11-25T00:33:22.348Z,95231.03
2023-11-25T00:35:49.471Z,95223.84
2023-11-25T00:38:16.478Z,95224.00
2023-11-25T00:40:43.379Z,95226.63
2023-11-25T00:43:10.380Z,95204.03
2023-11-25T00:45:37.546Z,95202.22
2023-11-25T00:48:05.204Z,95199.78
2023-11-25T00:50:32.417Z,95199.94
2023-11-25T00:52:59.486Z,95193.91
2023-11-25T00:55:28.044Z,95191.59
2023-11-25T00:57:55.255Z,95187.97
2023-11-25T01:00:26.423Z,95172.59
2023-11-25T01:02:54.409Z,95168.63
2023-11-25T01:05:21.466Z,95167.81
2023-11-25T01:07:48.421Z,95171.09
2023-11-25T01:10:15.459Z,95168.63
2023-11-25T01:12:42.811Z,95165.00
2023-11-25T01:15:12.928Z,95146.06
2023-11-25T01:17:40.444Z,95157.22
2023-11-25T01:20:08.375Z,95157.56
2023-11-25T01:22:35.907Z,95154.59
2023-11-25T01:25:03.019Z,95149.34
2023-11-25T01:27:30.131Z,95138.72
2023-11-25T01:29:58.689Z,95124.78
2023-11-25T01:32:32.684Z,95124.97
2023-11-25T01:34:59.641Z,95131.38
2023-11-25T01:37:28.866Z,95127.53
2023-11-25T01:39:55.946Z,95130.78
2023-11-25T01:42:22.815Z,95136.56
2023-11-25T01:44:50.007Z,95115.88
2023-11-25T01:47:16.993Z,95126.84
2023-11-25T01:49:45.084Z,95113.47
2023-11-25T01:52:12.325Z,95112.72
2023-11-25T01:54:39.398Z,95110.03
2023-11-25T01:57:07.541Z,95098.75
2023-11-25T01:59:35.140Z,95098.00
2023-11-25T02:02:06.536Z,95101.16
2023-11-25T02:04:37.051Z,95089.69
2023-11-25T02:07:04.366Z,95084.78
2023-11-25T02:09:32.542Z,95079.56
2023-11-25T02:12:03.589Z,95064.53
2023-11-25T02:14:30.897Z,95062.63
2023-11-25T02:16:58.594Z,95064.94
2023-11-25T02:19:26.233Z,95065.94
2023-11-25T02:21:54.430Z,95057.94
2023-11-25T02:24:21.726Z,95056.22
2023-11-25T02:26:49.539Z,95051.72
2023-11-25T02:29:16.558Z,95047.19
2023-11-25T02:31:44.357Z,95048.47
2023-11-25T02:34:11.658Z,95062.56
2023-11-25T02:36:39.853Z,95041.59
2023-11-25T02:39:06.880Z,95041.94
2023-11-25T02:41:33.926Z,95019.38
2023-11-25T02:44:01.368Z,95007.44
2023-11-25T02:46:29.190Z,95002.75
2023-11-25T02:48:56.309Z,94995.88
2023-11-25T02:51:23.385Z,94996.22
2023-11-25T02:54:53.702Z,94980.44
2023-11-25T02:57:23.824Z,94978.34
2023-11-25T02:59:50.776Z,94994.88
2023-11-25T03:02:19.794Z,94997.69
2023-11-25T03:04:49.316Z,94983.88
2023-11-25T03:07:16.865Z,94995.81
2023-11-25T03:09:43.935Z,94980.69
2023-11-25T03:12:11.341Z,94983.31
2023-11-25T03:14:38.252Z,94970.59
2023-11-25T03:17:05.424Z,94968.25
2023-11-25T03:19:32.604Z,94965.72
2023-11-25T03:21:59.836Z,94968.03
2023-11-25T03:24:27.028Z,94970.50
2023-11-25T03:26:54.344Z,94976.28
2023-11-25T03:29:21.665Z,94973.38
2023-11-25T03:31:48.770Z,94976.28
2023-11-25T03:34:15.737Z,94968.44
2023-11-25T03:36:42.906Z,94961.19
2023-11-25T03:39:11.240Z,94965.63
2023-11-25T03:41:38.139Z,94963.19
2023-11-25T03:44:05.762Z,94954.13
2023-11-25T03:46:32.891Z,94945.47
2023-11-25T03:48:59.872Z,94952.31
2023-11-25T03:51:26.957Z,94952.72
2023-11-25T03:53:53.875Z,94945.38
2023-11-25T03:56:20.825Z,94956.66
2023-11-25T03:58:47.779Z,94944.72
2023-11-25T04:01:15.049Z,94950.91
2023-11-25T04:03:41.940Z,94944.72
2023-11-25T04:06:09.253Z,94939.84
2023-11-25T04:08:36.857Z,94941.75
2023-11-25T04:11:09.026Z,94936.31
2023-11-25T04:13:36.641Z,94939.47
2023-11-25T04:16:04.694Z,94934.25
2023-11-25T04:18:32.235Z,94946.69
2023-11-25T04:20:59.154Z,94957.16
2023-11-25T04:23:26.532Z,94957.16
2023-11-25T04:25:53.657Z,94950.56
2023-11-25T04:28:20.594Z,94946.25
2023-11-25T04:30:47.466Z,94950.94
2023-11-25T04:33:15.584Z,94952.69
2023-11-25T04:35:42.664Z,94939.75
2023-11-25T04:38:09.753Z,94941.94
2023-11-25T04:40:36.614Z,94935.78
2023-11-25T04:43:03.499Z,94937.06
2023-11-25T04:45:30.692Z,94938.06
2023-11-25T04:47:57.607Z,94945.91
2023-11-25T04:50:28.156Z,94940.88
2023-11-25T04:52:55.366Z,94943.56
2023-11-25T04:55:24.349Z,94949.34
2023-11-25T04:57:51.299Z,94939.31
2023-11-25T05:00:18.596Z,94935.09
2023-11-25T05:02:45.639Z,94948.88
2023-11-25T05:05:14.273Z,94939.06
2023-11-25T05:07:42.341Z,94944.91
2023-11-25T05:10:11.921Z,94944.28
2023-11-25T05:12:40.521Z,94947.16
2023-11-25T05:15:10.438Z,94939.31
2023-11-25T05:17:37.725Z,94944.56
2023-11-25T05:20:10.664Z,94949.25
2023-11-25T05:22:41.266Z,94945.47
2023-11-25T05:25:14.047Z,94943.56
2023-11-25T05:27:41.161Z,94937.97
2023-11-25T05:30:10.489Z,94945.81
2023-11-25T05:32:37.759Z,94926.69
2023-11-25T05:35:08.197Z,94933.63
2023-11-25T05:37:35.390Z,94934.84
2023-11-25T05:40:02.598Z,94936.00
2023-11-25T05:42:29.794Z,94941.84
2023-11-25T05:44:57.397Z,94936.63
2023-11-25T05:47:25.369Z,94944.19
2023-11-25T05:49:53.196Z,94933.72
2023-11-25T05:52:20.439Z,94928.50
2023-11-25T05:54:47.982Z,94943.41
2023-11-25T05:57:15.345Z,94934.44
2023-11-25T05:59:42.900Z,94930.47
2023-11-25T06:02:11.422Z,94933.72
2023-11-25T06:04:38.704Z,94944.91
2023-11-25T06:07:05.777Z,94941.66
2023-11-25T06:09:32.618Z,94944.63
2023-11-25T06:11:59.526Z,94956.72
2023-11-25T06:14:27.255Z,94953.13
2023-11-25T06:16:58.683Z,94942.81
2023-11-25T06:19:26.155Z,94938.47
2023-11-25T06:21:56.091Z,94950.66
2023-11-25T06:24:23.032Z,94948.56
2023-11-25T06:26:51.431Z,94948.22
2023-11-25T06:29:18.448Z,94948.91
2023-11-25T06:31:48.420Z,94952.34
2023-11-25T06:34:15.500Z,94950.88
2023-11-25T06:36:45.600Z,94953.69
2023-11-25T06:39:16.244Z,94969.75
2023-11-25T06:41:48.373Z,94973.81
2023-11-25T06:44:15.384Z,94983.13
2023-11-25T06:46:42.680Z,94982.81
2023-11-25T06:49:10.628Z,94980.22
2023-11-25T06:51:37.369Z,94987.44
2023-11-25T06:54:04.665Z,94986.59
2023-11-25T06:56:31.489Z,94987.13
2023-11-25T06:58:58.337Z,94990.81
2023-11-25T07:01:25.281Z,94991.50
2023-11-25T07:03:52.303Z,94994.50
2023-11-25T07:06:19.553Z,94990.94
2023-11-25T07:08:46.953Z,94995.53
2023-11-25T07:11:17.590Z,94997.50
2023-11-25T07:13:44.625Z,94990.81
2023-11-25T07:16:13.480Z,94982.50
2023-11-25T07:18:44.509Z,94990.53
2023-11-25T07:21:14.627Z,94990.06
2023-11-25T07:23:41.748Z,94987.81
2023-11-25T07:26:09.119Z,95000.84
2023-11-25T07:28:36.808Z,95001.66
2023-11-25T07:31:04.836Z,95009.69
2023-11-25T07:33:31.970Z,95011.19
2023-11-25T07:35:58.798Z,95002.53
2023-11-25T07:38:26.043Z,95012.53
2023-11-25T07:40:53.536Z,95015.50
2023-11-25T07:43:20.432Z,95017.44
2023-11-25T07:45:48.444Z,95016.34
2023-11-25T07:48:15.151Z,95011.78
2023-11-25T07:50:49.112Z,95011.16
2023-11-25T07:53:24.656Z,95014.28
2023-11-25T07:55:52.606Z,95017.41
2023-11-25T07:58:20.538Z,95017.75
2023-11-25T08:00:47.463Z,95021.31
2023-11-25T08:03:14.873Z,95018.72
2023-11-25T08:05:41.906Z,95023.59
2023-11-25T08:08:08.756Z,95016.91
2023-11-25T08:10:36.887Z,95021.59
2023-11-25T08:13:04.101Z,95024.22
2023-11-25T08:15:32.600Z,95027.13
2023-11-25T08:18:00.358Z,95026.78
2023-11-25T08:20:27.387Z,95027.59
2023-11-25T08:22:54.780Z,95033.97
2023-11-25T08:25:21.918Z,95037.59
2023-11-25T08:27:51.593Z,95047.25
2023-11-25T08:30:18.596Z,95051.22
2023-11-25T08:32:46.219Z,95050.72
2023-11-25T08:35:13.512Z,95079.06
2023-11-25T08:37:41.233Z,95070.19
2023-11-25T08:40:18.396Z,95076.44
2023-11-25T08:42:46.745Z,95078.81
2023-11-25T08:45:14.362Z,95077.75
2023-11-25T08:47:43.866Z,95085.19
2023-11-25T08:50:15.652Z,95097.97
2023-11-25T08:52:47.651Z,95093.34
2023-11-25T08:55:19.472Z,95100.16
2023-11-25T08:57:47.430Z,95097.72
2023-11-25T09:00:21.529Z,95095.34
2023-11-25T09:02:55.626Z,95094.50
2023-11-25T09:05:27.207Z,95099.13
2023-11-25T09:07:57.267Z,95097.75
2023-11-25T09:10:26.347Z,95095.69
2023-11-25T09:12:54.110Z,95102.47
2023-11-25T09:15:21.755Z,95093.47
2023-11-25T09:17:48.668Z,95095.13
2023-11-25T09:20:18.137Z,95092.91
2023-11-25T09:22:46.460Z,95092.09
2023-11-25T09:25:14.027Z,95092.91
2023-11-25T09:27:45.758Z,95090.28
2023-11-25T09:30:15.421Z,95083.31
2023-11-25T09:32:43.603Z,95084.63
2023-11-25T09:35:19.307Z,95075.97
2023-11-25T09:37:47.289Z,95074.22
2023-11-25T09:40:17.823Z,95063.19
2023-11-25T09:42:46.396Z,95071.25
2023-11-25T09:45:14.397Z,95074.09
2023-11-25T09:47:41.547Z,95069.19
2023-11-25T09:50:12.216Z,95063.41
2023-11-25T09:52:54.420Z,95067.09
2023-11-25T09:55:24.475Z,95065.19
2023-11-25T09:58:00.661Z,95060.34
2023-11-25T10:00:29.305Z,95067.09
2023-11-25T10:02:59.455Z,95057.75
2023-11-25T10:05:31.367Z,95052.75
2023-11-25T10:07:59.855Z,95045.41
2023-11-25T10:10:30.400Z,95043.06
2023-11-25T10:12:58.103Z,95045.34
2023-11-25T10:15:25.094Z,95044.78
2023-11-25T10:17:52.318Z,95043.72
2023-11-25T10:20:24.211Z,95028.47
2023-11-25T10:22:58.058Z,95028.69
2023-11-25T10:25:28.042Z,95028.59
2023-11-25T10:27:56.327Z,95025.69
2023-11-25T10:30:24.595Z,95024.41
2023-11-25T10:32:53.875Z,95010.63
2023-11-25T10:35:26.092Z,95010.91
2023-11-25T10:37:53.832Z,95008.81
2023-11-25T10:40:23.635Z,95004.50
2023-11-25T10:42:50.943Z,94998.59
2023-11-25T10:45:23.152Z,95000.25
2023-11-25T10:47:50.990Z,94994.69
2023-11-25T10:50:17.850Z,94995.34
2023-11-25T10:52:46.392Z,94996.31
2023-11-25T10:55:14.042Z,94988.38
2023-11-25T10:57:42.281Z,94988.72
2023-11-25T11:00:13.187Z,94976.03
2023-11-25T11:02:58.553Z,94981.75
2023-11-25T11:05:54.953Z,94980.09
2023-11-25T11:08:26.153Z,94968.03
2023-11-25T11:11:00.717Z,94965.69
2023-11-25T11:13:55.823Z,94961.13
2023-11-25T11:16:41.273Z,94970.22
2023-11-25T11:19:11.536Z,94962.69
2023-11-25T11:21:42.776Z,94963.66
2023-11-25T11:24:13.927Z,94964.28
2023-11-25T11:27:00.268Z,94958.09
2023-11-25T11:29:36.625Z,94958.75
2023-11-25T11:32:06.645Z,94957.44
2023-11-25T11:34:35.598Z,94958.06
2023-11-25T11:37:04.516Z,94953.84
2023-11-25T11:39:52.949Z,94955.59
2023-11-25T11:42:36.032Z,94947.44
2023-11-25T11:45:17.144Z,94943.47
2023-11-25T11:47:46.889Z,94947.88
2023-11-25T11:50:19.051Z,94937.97
2023-11-25T11:52:47.652Z,94935.53
2023-11-25T14:43:14.586Z,94835.91
2023-11-25T14:45:41.653Z,94832.97
2023-11-25T14:48:09.098Z,94820.75
2023-11-25T14:50:42.186Z,94798.09
2023-11-25T14:53:09.644Z,94796.19
2023-11-25T14:55:36.710Z,94809.81
2023-11-25T14:58:04.340Z,94820.53
2023-11-25T15:00:31.276Z,94828.66
2023-11-25T15:02:59.326Z,94826.06
2023-11-25T15:05:26.366Z,94820.19
2023-11-25T15:07:53.355Z,94808.41
2023-11-25T15:10:26.147Z,94813.25
2023-11-25T15:12:54.086Z,94814.59
2023-11-25T15:15:20.875Z,94821.69
2023-11-25T15:17:48.087Z,94814.88
2023-11-25T15:20:15.817Z,94816.25
2023-11-25T15:22:42.839Z,94807.31
2023-11-25T15:25:10.159Z,94802.81
2023-11-25T15:27:37.292Z,94793.88
2023-11-25T15:30:12.193Z,94785.00
2023-11-25T15:32:44.817Z,94774.75
2023-11-25T15:35:12.083Z,94774.59
2023-11-25T15:37:39.005Z,94772.31
2023-11-25T15:40:06.691Z,94765.63
2023-11-25T15:42:34.460Z,94769.72
2023-11-25T15:45:01.693Z,94764.53
2023-11-25T15:47:29.015Z,94759.63
2023-11-25T15:49:56.104Z,94751.31
2023-11-25T15:52:22.929Z,94751.63
2023-11-25T15:54:50.885Z,94745.41
2023-11-25T15:57:17.782Z,94743.22
2023-11-25T15:59:45.109Z,94736.88
2023-11-25T16:02:12.268Z,94729.91
2023-11-25T16:04:39.714Z,94717.75
2023-11-25T16:07:11.749Z,94720.06
2023-11-25T16:09:40.160Z,94719.06
2023-11-25T16:12:07.871Z,94709.38
2023-11-25T16:14:35.065Z,94706.78
2023-11-25T16:17:03.987Z,94709.59
2023-11-25T16:19:31.175Z,94698.47
2023-11-25T16:21:58.031Z,94694.63
2023-11-25T16:24:24.905Z,94688.03
2023-11-25T16:26:51.669Z,94685.59
2023-11-25T16:29:19.847Z,94675.78
2023-11-25T16:31:47.162Z,94678.09
2023-11-25T16:34:14.225Z,94669.00
2023-11-25T16:36:42.384Z,94667.81
2023-11-25T16:39:11.452Z,94671.63
2023-11-25T16:41:39.025Z,94673.53
2023-11-25T16:44:06.258Z,94681.81
2023-11-25T16:46:33.810Z,94679.75
2023-11-25T16:49:07.622Z,94686.41
2023-11-25T16:51:36.671Z,94689.97
2023-11-25T16:54:03.473Z,94691.44
2023-11-25T16:56:30.399Z,94694.84
2023-11-25T16:58:57.327Z,94686.91
2023-11-25T17:01:24.324Z,94692.72
2023-11-25T17:03:51.543Z,94691.75
2023-11-25T17:06:19.677Z,94693.66
2023-11-25T17:08:46.602Z,94689.72
2023-11-25T17:11:13.896Z,94680.84
2023-11-25T17:13:40.791Z,94678.25
2023-11-25T17:16:07.790Z,94678.03
2023-11-25T17:18:35.109Z,94680.78
2023-11-25T17:21:02.743Z,94678.41
2023-11-25T17:23:29.919Z,94683.19
2023-11-25T17:25:57.100Z,94682.38
2023-11-25T17:28:25.535Z,94674.91
2023-11-25T17:30:52.389Z,94682.03
2023-11-25T17:33:21.036Z,94673.56
2023-11-25T17:35:47.969Z,94677.78
2023-11-25T17:38:15.495Z,94673.41
2023-11-25T17:40:42.466Z,94673.91
2023-11-25T17:43:09.621Z,94667.19
2023-11-25T17:45:37.432Z,94665.84
2023-11-25T17:48:04.811Z,94660.38
2023-11-25T17:50:31.594Z,94661.81
2023-11-25T17:53:06.949Z,94663.47
2023-11-25T17:55:39.699Z,94675.47
2023-11-25T17:58:07.160Z,94662.38
2023-11-25T18:12:40.052Z,94641.44
2023-11-25T18:15:07.755Z,94627.94
2023-11-25T18:17:34.890Z,94618.56
2023-11-25T18:20:01.890Z,94629.81
2023-11-25T18:22:29.175Z,94628.06
2023-11-25T18:24:56.154Z,94640.69
2023-11-25T18:27:23.140Z,94639.47
2023-11-25T18:29:52.395Z,94640.09
2023-11-25T18:32:19.970Z,94639.13
2023-11-25T18:34:47.906Z,94637.34
2023-11-25T18:37:19.473Z,94644.78
2023-11-25T18:39:46.703Z,94636.59
2023-11-25T18:42:18.459Z,94631.28
2023-11-25T18:44:46.153Z,94631.72
2023-11-25T18:47:13.357Z,94636.25
2023-11-25T18:49:41.679Z,94630.38
2023-11-25T18:52:09.190Z,94623.28
2023-11-25T18:54:37.259Z,94622.31
2023-11-25T18:57:04.162Z,94620.69
2023-11-25T18:59:31.610Z,94618.69
2023-11-25T19:02:02.019Z,94621.56
2023-11-25T19:04:29.563Z,94621.56
2023-11-25T19:06:57.428Z,94624.63
2023-11-25T19:09:24.604Z,94618.03
2023-11-25T19:11:53.495Z,94624.84
2023-11-25T19:14:21.290Z,94630.84
2023-11-25T19:16:49.032Z,94632.75
2023-11-25T19:19:16.169Z,94633.88
2023-11-25T19:21:43.410Z,94646.16
2023-11-25T19:24:10.856Z,94640.34
2023-11-25T19:26:44.363Z,94631.81
2023-11-25T19:29:11.570Z,94638.91
2023-11-25T19:31:38.884Z,94635.25
2023-11-25T19:34:06.073Z,94637.84
2023-11-25T19:36:33.897Z,94633.13
2023-11-25T19:39:06.067Z,94628.09
2023-11-25T19:41:33.370Z,94616.09
2023-11-25T19:44:00.770Z,94606.66
2023-11-25T19:46:28.024Z,94602.00
2023-11-25T19:48:58.170Z,94588.59
2023-11-25T19:51:28.307Z,94587.78
2023-11-25T19:53:56.371Z,94605.94
2023-11-25T19:56:24.541Z,94634.22
2023-11-25T19:58:51.892Z,94636.94
2023-11-25T20:01:19.221Z,94630.56
2023-11-25T20:03:46.649Z,94617.03
2023-11-25T20:06:14.192Z,94616.50
2023-11-25T20:08:42.517Z,94627.34
2023-11-25T20:11:09.919Z,94627.22
2023-11-25T20:13:40.734Z,94621.50
2023-11-25T20:16:08.562Z,94613.97
2023-11-25T20:18:35.754Z,94606.94
2023-11-25T20:21:04.014Z,94604.09
2023-11-25T20:23:32.308Z,94606.53
2023-11-25T20:26:01.815Z,94591.56
2023-11-25T20:28:32.254Z,94595.22
2023-11-25T20:31:00.597Z,94600.88
